sensor_id;sensor_type;location;lat;lon;timestamp;temperature;humidity
62809;DHT22;48848;39.002;-94.584;2023-08-08T00:01:26;20.80;52.00
62809;DHT22;48848;39.002;-94.584;2023-08-08T00:03:52;20.70;51.90
62809;DHT22;48848;39.002;-94.584;2023-08-08T00:06:17;20.80;52.00
62809;DHT22;48848;39.002;-94.584;2023-08-08T00:08:43;20.70;51.90
62809;DHT22;48848;39.002;-94.584;2023-08-08T00:11:09;20.70;51.80
62809;DHT22;48848;39.002;-94.584;2023-08-08T00:13:35;20.70;52.00
62809;DHT22;48848;39.002;-94.584;2023-08-08T00:16:01;20.60;51.80
62809;DHT22;48848;39.002;-94.584;2023-08-08T00:18:28;20.60;51.80
62809;DHT22;48848;39.002;-94.584;2023-08-08T00:20:54;20.60;51.70
62809;DHT22;48848;39.002;-94.584;2023-08-08T00:23:20;20.60;51.60
62809;DHT22;48848;39.002;-94.584;2023-08-08T00:25:45;20.60;51.70
62809;DHT22;48848;39.002;-94.584;2023-08-08T00:28:15;20.60;51.60
62809;DHT22;48848;39.002;-94.584;2023-08-08T00:30:42;20.60;51.60
62809;DHT22;48848;39.002;-94.584;2023-08-08T00:33:07;20.50;51.70
62809;DHT22;48848;39.002;-94.584;2023-08-08T00:35:33;20.50;51.80
62809;DHT22;48848;39.002;-94.584;2023-08-08T00:37:59;20.50;52.10
62809;DHT22;48848;39.002;-94.584;2023-08-08T00:40:25;20.50;51.60
62809;DHT22;48848;39.002;-94.584;2023-08-08T00:42:51;20.50;51.60
62809;DHT22;48848;39.002;-94.584;2023-08-08T00:45:16;20.40;51.60
62809;DHT22;48848;39.002;-94.584;2023-08-08T00:47:42;20.40;51.60
62809;DHT22;48848;39.002;-94.584;2023-08-08T00:50:08;20.40;51.40
62809;DHT22;48848;39.002;-94.584;2023-08-08T00:52:36;20.40;51.60
62809;DHT22;48848;39.002;-94.584;2023-08-08T00:55:03;20.40;51.80
62809;DHT22;48848;39.002;-94.584;2023-08-08T00:57:29;20.40;52.10
62809;DHT22;48848;39.002;-94.584;2023-08-08T00:59:55;20.40;51.90
62809;DHT22;48848;39.002;-94.584;2023-08-08T01:02:20;20.30;51.70
62809;DHT22;48848;39.002;-94.584;2023-08-08T01:04:46;20.30;51.70
62809;DHT22;48848;39.002;-94.584;2023-08-08T01:10:18;20.30;51.50
62809;DHT22;48848;39.002;-94.584;2023-08-08T01:12:46;20.30;51.60
62809;DHT22;48848;39.002;-94.584;2023-08-08T01:15:13;20.30;51.60
62809;DHT22;48848;39.002;-94.584;2023-08-08T01:17:39;20.20;51.40
62809;DHT22;48848;39.002;-94.584;2023-08-08T01:20:07;20.20;51.30
62809;DHT22;48848;39.002;-94.584;2023-08-08T01:25:25;20.20;51.60
62809;DHT22;48848;39.002;-94.584;2023-08-08T01:27:51;20.20;51.60
62809;DHT22;48848;39.002;-94.584;2023-08-08T01:30:17;20.20;54.60
62809;DHT22;48848;39.002;-94.584;2023-08-08T01:32:43;20.40;57.50
62809;DHT22;48848;39.002;-94.584;2023-08-08T01:35:09;20.40;58.10
62809;DHT22;48848;39.002;-94.584;2023-08-08T01:37:46;20.50;58.00
62809;DHT22;48848;39.002;-94.584;2023-08-08T01:40:15;20.50;57.50
62809;DHT22;48848;39.002;-94.584;2023-08-08T01:42:43;20.50;55.60
62809;DHT22;48848;39.002;-94.584;2023-08-08T01:45:10;20.50;54.60
62809;DHT22;48848;39.002;-94.584;2023-08-08T01:47:37;20.50;53.90
62809;DHT22;48848;39.002;-94.584;2023-08-08T01:50:03;20.40;53.30
62809;DHT22;48848;39.002;-94.584;2023-08-08T01:52:29;20.40;53.00
62809;DHT22;48848;39.002;-94.584;2023-08-08T01:54:55;20.40;52.90
62809;DHT22;48848;39.002;-94.584;2023-08-08T01:57:20;20.40;52.50
62809;DHT22;48848;39.002;-94.584;2023-08-08T01:59:47;20.30;52.20
62809;DHT22;48848;39.002;-94.584;2023-08-08T02:02:13;20.30;52.20
62809;DHT22;48848;39.002;-94.584;2023-08-08T02:04:40;20.30;52.10
62809;DHT22;48848;39.002;-94.584;2023-08-08T02:07:06;20.20;51.90
62809;DHT22;48848;39.002;-94.584;2023-08-08T02:09:32;20.20;51.80
62809;DHT22;48848;39.002;-94.584;2023-08-08T02:11:58;20.20;51.80
62809;DHT22;48848;39.002;-94.584;2023-08-08T02:14:23;20.20;51.80
62809;DHT22;48848;39.002;-94.584;2023-08-08T02:16:49;20.10;51.70
62809;DHT22;48848;39.002;-94.584;2023-08-08T02:19:15;20.10;51.70
62809;DHT22;48848;39.002;-94.584;2023-08-08T02:21:41;20.10;51.50
62809;DHT22;48848;39.002;-94.584;2023-08-08T02:24:07;20.10;51.40
62809;DHT22;48848;39.002;-94.584;2023-08-08T02:26:33;20.10;51.40
62809;DHT22;48848;39.002;-94.584;2023-08-08T02:28:59;20.10;54.10
62809;DHT22;48848;39.002;-94.584;2023-08-08T02:31:25;20.20;54.80
62809;DHT22;48848;39.002;-94.584;2023-08-08T02:33:51;20.30;54.90
62809;DHT22;48848;39.002;-94.584;2023-08-08T02:36:17;20.40;55.00
62809;DHT22;48848;39.002;-94.584;2023-08-08T02:38:44;20.40;55.10
62809;DHT22;48848;39.002;-94.584;2023-08-08T02:41:10;20.50;55.30
62809;DHT22;48848;39.002;-94.584;2023-08-08T02:43:35;20.60;55.50
62809;DHT22;48848;39.002;-94.584;2023-08-08T02:46:01;20.70;56.60
62809;DHT22;48848;39.002;-94.584;2023-08-08T02:48:28;20.80;55.90
62809;DHT22;48848;39.002;-94.584;2023-08-08T02:50:54;20.80;56.00
62809;DHT22;48848;39.002;-94.584;2023-08-08T02:53:20;20.80;56.00
62809;DHT22;48848;39.002;-94.584;2023-08-08T02:55:46;20.90;56.10
62809;DHT22;48848;39.002;-94.584;2023-08-08T02:58:12;20.90;56.20
62809;DHT22;48848;39.002;-94.584;2023-08-08T03:00:38;21.00;55.50
62809;DHT22;48848;39.002;-94.584;2023-08-08T03:03:04;21.00;54.10
62809;DHT22;48848;39.002;-94.584;2023-08-08T03:05:30;20.90;53.50
62809;DHT22;48848;39.002;-94.584;2023-08-08T03:07:56;20.80;53.20
62809;DHT22;48848;39.002;-94.584;2023-08-08T03:10:22;20.80;53.10
62809;DHT22;48848;39.002;-94.584;2023-08-08T03:12:47;20.80;53.00
62809;DHT22;48848;39.002;-94.584;2023-08-08T03:15:13;20.70;52.80
62809;DHT22;48848;39.002;-94.584;2023-08-08T03:17:39;20.70;52.60
62809;DHT22;48848;39.002;-94.584;2023-08-08T03:20:05;20.60;53.40
62809;DHT22;48848;39.002;-94.584;2023-08-08T03:22:32;20.50;52.30
62809;DHT22;48848;39.002;-94.584;2023-08-08T03:24:58;20.50;52.30
62809;DHT22;48848;39.002;-94.584;2023-08-08T03:27:24;20.50;52.20
62809;DHT22;48848;39.002;-94.584;2023-08-08T03:29:50;20.40;52.10
62809;DHT22;48848;39.002;-94.584;2023-08-08T03:32:16;20.40;52.20
62809;DHT22;48848;39.002;-94.584;2023-08-08T03:34:42;20.40;52.40
62809;DHT22;48848;39.002;-94.584;2023-08-08T03:37:08;20.30;52.50
62809;DHT22;48848;39.002;-94.584;2023-08-08T03:39:34;20.30;52.80
62809;DHT22;48848;39.002;-94.584;2023-08-08T03:42:00;20.30;52.90
62809;DHT22;48848;39.002;-94.584;2023-08-08T03:44:26;20.30;52.80
62809;DHT22;48848;39.002;-94.584;2023-08-08T03:46:52;20.20;52.70
62809;DHT22;48848;39.002;-94.584;2023-08-08T03:49:17;20.20;52.70
62809;DHT22;48848;39.002;-94.584;2023-08-08T03:51:43;20.10;52.60
62809;DHT22;48848;39.002;-94.584;2023-08-08T03:54:09;20.10;52.60
62809;DHT22;48848;39.002;-94.584;2023-08-08T03:56:35;20.20;53.80
62809;DHT22;48848;39.002;-94.584;2023-08-08T03:59:01;20.30;54.40
62809;DHT22;48848;39.002;-94.584;2023-08-08T04:01:27;20.40;54.60
62809;DHT22;48848;39.002;-94.584;2023-08-08T04:03:53;20.40;54.70
62809;DHT22;48848;39.002;-94.584;2023-08-08T04:06:18;20.50;54.70
62809;DHT22;48848;39.002;-94.584;2023-08-08T04:08:44;20.50;54.80
62809;DHT22;48848;39.002;-94.584;2023-08-08T04:11:11;20.60;54.80
62809;DHT22;48848;39.002;-94.584;2023-08-08T04:13:36;20.60;54.90
62809;DHT22;48848;39.002;-94.584;2023-08-08T04:16:02;20.70;55.00
62809;DHT22;48848;39.002;-94.584;2023-08-08T04:18:28;20.70;55.10
62809;DHT22;48848;39.002;-94.584;2023-08-08T04:20:54;20.80;55.20
62809;DHT22;48848;39.002;-94.584;2023-08-08T04:23:20;20.80;55.30
62809;DHT22;48848;39.002;-94.584;2023-08-08T04:25:47;20.90;56.20
62809;DHT22;48848;39.002;-94.584;2023-08-08T04:28:13;20.90;55.40
62809;DHT22;48848;39.002;-94.584;2023-08-08T04:30:39;21.00;55.60
62809;DHT22;48848;39.002;-94.584;2023-08-08T04:33:05;21.00;55.50
62809;DHT22;48848;39.002;-94.584;2023-08-08T04:35:31;21.00;55.50
62809;DHT22;48848;39.002;-94.584;2023-08-08T04:37:57;21.10;55.70
62809;DHT22;48848;39.002;-94.584;2023-08-08T04:40:22;21.10;55.80
62809;DHT22;48848;39.002;-94.584;2023-08-08T04:42:48;21.10;55.70
62809;DHT22;48848;39.002;-94.584;2023-08-08T04:45:14;21.20;55.80
62809;DHT22;48848;39.002;-94.584;2023-08-08T04:47:40;21.20;55.80
62809;DHT22;48848;39.002;-94.584;2023-08-08T04:50:06;21.20;56.00
62809;DHT22;48848;39.002;-94.584;2023-08-08T04:52:32;21.20;56.10
62809;DHT22;48848;39.002;-94.584;2023-08-08T04:54:58;21.30;56.10
62809;DHT22;48848;39.002;-94.584;2023-08-08T04:57:23;21.30;56.10
62809;DHT22;48848;39.002;-94.584;2023-08-08T04:59:49;21.30;56.60
62809;DHT22;48848;39.002;-94.584;2023-08-08T05:02:15;21.40;56.30
62809;DHT22;48848;39.002;-94.584;2023-08-08T05:04:41;21.40;56.30
62809;DHT22;48848;39.002;-94.584;2023-08-08T05:07:07;21.40;56.20
62809;DHT22;48848;39.002;-94.584;2023-08-08T05:09:33;21.50;56.30
62809;DHT22;48848;39.002;-94.584;2023-08-08T05:11:59;21.50;56.30
62809;DHT22;48848;39.002;-94.584;2023-08-08T05:14:25;21.50;56.30
62809;DHT22;48848;39.002;-94.584;2023-08-08T05:16:51;21.60;56.40
62809;DHT22;48848;39.002;-94.584;2023-08-08T05:19:16;21.60;56.50
62809;DHT22;48848;39.002;-94.584;2023-08-08T05:21:42;21.60;56.50
62809;DHT22;48848;39.002;-94.584;2023-08-08T05:24:08;21.60;56.50
62809;DHT22;48848;39.002;-94.584;2023-08-08T05:26:34;21.60;56.50
62809;DHT22;48848;39.002;-94.584;2023-08-08T05:29:00;21.70;56.70
62809;DHT22;48848;39.002;-94.584;2023-08-08T05:31:26;21.70;56.70
62809;DHT22;48848;39.002;-94.584;2023-08-08T05:33:51;21.70;56.70
62809;DHT22;48848;39.002;-94.584;2023-08-08T05:36:18;21.70;56.70
62809;DHT22;48848;39.002;-94.584;2023-08-08T05:38:44;21.70;56.80
62809;DHT22;48848;39.002;-94.584;2023-08-08T05:41:09;21.80;56.90
62809;DHT22;48848;39.002;-94.584;2023-08-08T05:43:35;21.80;57.00
62809;DHT22;48848;39.002;-94.584;2023-08-08T05:46:02;21.80;57.10
62809;DHT22;48848;39.002;-94.584;2023-08-08T05:48:28;21.80;57.10
62809;DHT22;48848;39.002;-94.584;2023-08-08T05:50:54;21.80;57.20
62809;DHT22;48848;39.002;-94.584;2023-08-08T05:53:19;21.90;57.40
62809;DHT22;48848;39.002;-94.584;2023-08-08T05:55:45;21.90;57.50
62809;DHT22;48848;39.002;-94.584;2023-08-08T05:58:11;22.00;57.50
62809;DHT22;48848;39.002;-94.584;2023-08-08T06:00:37;21.90;57.50
62809;DHT22;48848;39.002;-94.584;2023-08-08T06:03:03;22.00;57.60
62809;DHT22;48848;39.002;-94.584;2023-08-08T06:05:29;22.00;57.60
62809;DHT22;48848;39.002;-94.584;2023-08-08T06:07:55;22.00;57.50
62809;DHT22;48848;39.002;-94.584;2023-08-08T06:10:21;22.00;57.60
62809;DHT22;48848;39.002;-94.584;2023-08-08T06:12:47;22.00;57.70
62809;DHT22;48848;39.002;-94.584;2023-08-08T06:15:13;22.00;57.80
62809;DHT22;48848;39.002;-94.584;2023-08-08T06:17:39;22.00;57.80
62809;DHT22;48848;39.002;-94.584;2023-08-08T06:20:05;22.10;57.80
62809;DHT22;48848;39.002;-94.584;2023-08-08T06:22:32;22.10;57.80
62809;DHT22;48848;39.002;-94.584;2023-08-08T06:24:58;22.00;55.80
62809;DHT22;48848;39.002;-94.584;2023-08-08T06:27:24;22.00;54.30
62809;DHT22;48848;39.002;-94.584;2023-08-08T06:29:50;21.90;53.50
62809;DHT22;48848;39.002;-94.584;2023-08-08T06:32:15;21.80;52.80
62809;DHT22;48848;39.002;-94.584;2023-08-08T06:34:41;21.70;52.50
62809;DHT22;48848;39.002;-94.584;2023-08-08T06:37:07;21.60;52.10
62809;DHT22;48848;39.002;-94.584;2023-08-08T06:39:33;21.50;51.80
62809;DHT22;48848;39.002;-94.584;2023-08-08T06:42:00;21.40;51.50
62809;DHT22;48848;39.002;-94.584;2023-08-08T06:44:26;21.40;51.40
62809;DHT22;48848;39.002;-94.584;2023-08-08T06:46:52;21.20;51.10
62809;DHT22;48848;39.002;-94.584;2023-08-08T06:49:17;21.30;52.40
62809;DHT22;48848;39.002;-94.584;2023-08-08T06:51:43;21.30;53.30
62809;DHT22;48848;39.002;-94.584;2023-08-08T06:54:09;21.40;53.70
62809;DHT22;48848;39.002;-94.584;2023-08-08T06:56:35;21.40;53.80
62809;DHT22;48848;39.002;-94.584;2023-08-08T06:59:01;21.40;54.00
62809;DHT22;48848;39.002;-94.584;2023-08-08T07:01:26;21.50;54.00
62809;DHT22;48848;39.002;-94.584;2023-08-08T07:03:52;21.50;54.00
62809;DHT22;48848;39.002;-94.584;2023-08-08T07:06:18;21.50;54.30
62809;DHT22;48848;39.002;-94.584;2023-08-08T07:08:44;21.60;54.60
62809;DHT22;48848;39.002;-94.584;2023-08-08T07:11:10;21.60;54.90
62809;DHT22;48848;39.002;-94.584;2023-08-08T07:13:36;21.60;55.10
62809;DHT22;48848;39.002;-94.584;2023-08-08T07:16:02;21.70;55.20
62809;DHT22;48848;39.002;-94.584;2023-08-08T07:18:28;21.70;55.20
62809;DHT22;48848;39.002;-94.584;2023-08-08T07:20:53;21.70;55.20
62809;DHT22;48848;39.002;-94.584;2023-08-08T07:23:19;21.70;55.30
62809;DHT22;48848;39.002;-94.584;2023-08-08T07:25:45;21.70;55.60
62809;DHT22;48848;39.002;-94.584;2023-08-08T07:28:12;21.80;55.80
62809;DHT22;48848;39.002;-94.584;2023-08-08T07:30:40;21.80;56.10
62809;DHT22;48848;39.002;-94.584;2023-08-08T07:33:06;21.80;56.10
62809;DHT22;48848;39.002;-94.584;2023-08-08T07:35:34;21.80;56.10
62809;DHT22;48848;39.002;-94.584;2023-08-08T07:38:00;21.80;56.10
62809;DHT22;48848;39.002;-94.584;2023-08-08T07:40:26;21.80;56.00
62809;DHT22;48848;39.002;-94.584;2023-08-08T07:42:52;21.90;56.10
62809;DHT22;48848;39.002;-94.584;2023-08-08T07:45:18;21.90;56.00
62809;DHT22;48848;39.002;-94.584;2023-08-08T07:47:44;21.90;56.00
62809;DHT22;48848;39.002;-94.584;2023-08-08T07:50:10;21.90;56.00
62809;DHT22;48848;39.002;-94.584;2023-08-08T07:52:36;21.90;56.10
62809;DHT22;48848;39.002;-94.584;2023-08-08T07:55:02;21.90;56.20
62809;DHT22;48848;39.002;-94.584;2023-08-08T07:57:29;22.00;56.50
62809;DHT22;48848;39.002;-94.584;2023-08-08T07:59:56;22.00;56.60
62809;DHT22;48848;39.002;-94.584;2023-08-08T08:02:21;22.00;56.60
62809;DHT22;48848;39.002;-94.584;2023-08-08T08:04:47;22.00;56.60
62809;DHT22;48848;39.002;-94.584;2023-08-08T08:07:13;22.00;56.50
62809;DHT22;48848;39.002;-94.584;2023-08-08T08:09:39;22.00;56.50
62809;DHT22;48848;39.002;-94.584;2023-08-08T08:12:08;22.10;56.60
62809;DHT22;48848;39.002;-94.584;2023-08-08T08:14:34;22.10;56.60
62809;DHT22;48848;39.002;-94.584;2023-08-08T08:17:00;22.10;56.70
62809;DHT22;48848;39.002;-94.584;2023-08-08T08:19:26;22.10;56.70
62809;DHT22;48848;39.002;-94.584;2023-08-08T08:21:52;22.10;56.90
62809;DHT22;48848;39.002;-94.584;2023-08-08T08:24:17;22.10;57.00
62809;DHT22;48848;39.002;-94.584;2023-08-08T08:26:43;22.10;56.90
62809;DHT22;48848;39.002;-94.584;2023-08-08T08:29:09;22.10;56.90
62809;DHT22;48848;39.002;-94.584;2023-08-08T08:31:35;22.10;56.70
62809;DHT22;48848;39.002;-94.584;2023-08-08T08:34:03;22.20;56.80
62809;DHT22;48848;39.002;-94.584;2023-08-08T08:36:28;22.20;56.80
62809;DHT22;48848;39.002;-94.584;2023-08-08T08:38:54;22.20;56.90
62809;DHT22;48848;39.002;-94.584;2023-08-08T08:41:20;22.20;57.00
62809;DHT22;48848;39.002;-94.584;2023-08-08T08:43:48;22.20;57.00
62809;DHT22;48848;39.002;-94.584;2023-08-08T08:46:14;22.20;57.10
62809;DHT22;48848;39.002;-94.584;2023-08-08T08:48:43;22.20;57.20
62809;DHT22;48848;39.002;-94.584;2023-08-08T08:51:10;22.20;57.50
62809;DHT22;48848;39.002;-94.584;2023-08-08T08:53:36;22.20;57.70
62809;DHT22;48848;39.002;-94.584;2023-08-08T08:56:04;22.30;57.70
62809;DHT22;48848;39.002;-94.584;2023-08-08T08:58:30;22.30;57.70
62809;DHT22;48848;39.002;-94.584;2023-08-08T09:00:56;22.30;57.60
62809;DHT22;48848;39.002;-94.584;2023-08-08T09:03:24;22.30;57.30
62809;DHT22;48848;39.002;-94.584;2023-08-08T09:05:49;22.30;56.40
62809;DHT22;48848;39.002;-94.584;2023-08-08T09:08:16;22.30;57.30
62809;DHT22;48848;39.002;-94.584;2023-08-08T09:10:42;22.30;55.40
62809;DHT22;48848;39.002;-94.584;2023-08-08T09:13:08;22.20;53.50
62809;DHT22;48848;39.002;-94.584;2023-08-08T09:15:34;22.10;52.50
62809;DHT22;48848;39.002;-94.584;2023-08-08T09:18:00;22.00;52.00
62809;DHT22;48848;39.002;-94.584;2023-08-08T09:20:26;21.90;51.50
62809;DHT22;48848;39.002;-94.584;2023-08-08T09:22:56;21.70;51.20
62809;DHT22;48848;39.002;-94.584;2023-08-08T09:25:22;21.60;50.80
62809;DHT22;48848;39.002;-94.584;2023-08-08T09:27:50;21.50;50.70
62809;DHT22;48848;39.002;-94.584;2023-08-08T09:30:17;21.50;52.00
62809;DHT22;48848;39.002;-94.584;2023-08-08T09:32:43;21.60;53.00
62809;DHT22;48848;39.002;-94.584;2023-08-08T09:35:10;21.60;53.30
62809;DHT22;48848;39.002;-94.584;2023-08-08T09:37:37;21.70;53.50
62809;DHT22;48848;39.002;-94.584;2023-08-08T09:40:03;21.70;53.60
62809;DHT22;48848;39.002;-94.584;2023-08-08T09:42:30;21.70;53.70
62809;DHT22;48848;39.002;-94.584;2023-08-08T09:44:57;21.70;53.80
62809;DHT22;48848;39.002;-94.584;2023-08-08T09:47:23;21.70;53.80
62809;DHT22;48848;39.002;-94.584;2023-08-08T09:49:50;21.70;54.00
62809;DHT22;48848;39.002;-94.584;2023-08-08T09:52:16;21.80;54.20
62809;DHT22;48848;39.002;-94.584;2023-08-08T09:54:42;21.80;54.50
62809;DHT22;48848;39.002;-94.584;2023-08-08T09:57:09;21.80;54.50
62809;DHT22;48848;39.002;-94.584;2023-08-08T09:59:35;21.80;54.70
62809;DHT22;48848;39.002;-94.584;2023-08-08T10:02:01;21.80;54.80
62809;DHT22;48848;39.002;-94.584;2023-08-08T10:04:27;21.90;56.00
62809;DHT22;48848;39.002;-94.584;2023-08-08T10:06:53;21.90;55.00
62809;DHT22;48848;39.002;-94.584;2023-08-08T10:09:19;21.90;55.00
62809;DHT22;48848;39.002;-94.584;2023-08-08T10:11:45;21.90;55.10
62809;DHT22;48848;39.002;-94.584;2023-08-08T10:14:12;21.90;55.20
62809;DHT22;48848;39.002;-94.584;2023-08-08T10:16:39;21.90;55.30
62809;DHT22;48848;39.002;-94.584;2023-08-08T10:19:07;22.00;55.70
62809;DHT22;48848;39.002;-94.584;2023-08-08T10:21:33;22.00;56.00
62809;DHT22;48848;39.002;-94.584;2023-08-08T10:24:03;22.00;55.90
62809;DHT22;48848;39.002;-94.584;2023-08-08T10:26:30;22.00;55.90
62809;DHT22;48848;39.002;-94.584;2023-08-08T10:28:56;22.00;56.00
62809;DHT22;48848;39.002;-94.584;2023-08-08T10:31:22;22.00;55.90
62809;DHT22;48848;39.002;-94.584;2023-08-08T10:33:48;22.10;56.00
62809;DHT22;48848;39.002;-94.584;2023-08-08T10:36:14;22.10;56.00
62809;DHT22;48848;39.002;-94.584;2023-08-08T10:38:47;22.00;55.90
62809;DHT22;48848;39.002;-94.584;2023-08-08T10:41:18;22.10;55.90
62809;DHT22;48848;39.002;-94.584;2023-08-08T10:43:54;22.10;56.00
62809;DHT22;48848;39.002;-94.584;2023-08-08T10:46:32;22.10;56.10
62809;DHT22;48848;39.002;-94.584;2023-08-08T10:49:00;22.10;56.30
62809;DHT22;48848;39.002;-94.584;2023-08-08T10:51:36;22.10;56.40
62809;DHT22;48848;39.002;-94.584;2023-08-08T10:54:06;22.10;56.40
62809;DHT22;48848;39.002;-94.584;2023-08-08T10:56:32;22.10;56.40
62809;DHT22;48848;39.002;-94.584;2023-08-08T10:58:58;22.10;56.30
62809;DHT22;48848;39.002;-94.584;2023-08-08T11:01:26;22.10;56.20
62809;DHT22;48848;39.002;-94.584;2023-08-08T11:03:53;22.10;56.20
62809;DHT22;48848;39.002;-94.584;2023-08-08T11:06:19;22.10;56.10
62809;DHT22;48848;39.002;-94.584;2023-08-08T11:08:46;22.10;56.20
62809;DHT22;48848;39.002;-94.584;2023-08-08T11:11:11;22.10;56.10
62809;DHT22;48848;39.002;-94.584;2023-08-08T11:13:37;22.20;56.40
62809;DHT22;48848;39.002;-94.584;2023-08-08T11:16:03;22.20;56.60
62809;DHT22;48848;39.002;-94.584;2023-08-08T11:18:29;22.20;56.60
62809;DHT22;48848;39.002;-94.584;2023-08-08T11:20:56;22.20;56.70
62809;DHT22;48848;39.002;-94.584;2023-08-08T11:23:21;22.20;56.70
62809;DHT22;48848;39.002;-94.584;2023-08-08T11:25:47;22.20;56.60
62809;DHT22;48848;39.002;-94.584;2023-08-08T11:28:15;22.20;56.60
62809;DHT22;48848;39.002;-94.584;2023-08-08T11:30:45;22.20;56.50
62809;DHT22;48848;39.002;-94.584;2023-08-08T11:33:14;22.20;56.50
62809;DHT22;48848;39.002;-94.584;2023-08-08T11:35:43;22.20;56.50
62809;DHT22;48848;39.002;-94.584;2023-08-08T11:38:11;22.30;56.40
62809;DHT22;48848;39.002;-94.584;2023-08-08T11:40:37;22.20;56.40
62809;DHT22;48848;39.002;-94.584;2023-08-08T11:43:03;22.30;56.50
62809;DHT22;48848;39.002;-94.584;2023-08-08T11:45:29;22.30;56.70
62809;DHT22;48848;39.002;-94.584;2023-08-08T11:47:55;22.30;56.70
62809;DHT22;48848;39.002;-94.584;2023-08-08T11:50:22;22.30;56.70
62809;DHT22;48848;39.002;-94.584;2023-08-08T11:52:53;22.30;56.80
62809;DHT22;48848;39.002;-94.584;2023-08-08T11:55:19;22.30;56.70
62809;DHT22;48848;39.002;-94.584;2023-08-08T11:57:48;22.30;56.60
62809;DHT22;48848;39.002;-94.584;2023-08-08T12:00:14;22.30;56.50
62809;DHT22;48848;39.002;-94.584;2023-08-08T12:02:41;22.30;56.50
62809;DHT22;48848;39.002;-94.584;2023-08-08T12:05:08;22.30;56.50
62809;DHT22;48848;39.002;-94.584;2023-08-08T12:07:37;22.30;56.60
62809;DHT22;48848;39.002;-94.584;2023-08-08T12:10:14;22.30;56.60
62809;DHT22;48848;39.002;-94.584;2023-08-08T12:12:40;22.30;56.60
62809;DHT22;48848;39.002;-94.584;2023-08-08T12:15:06;22.30;56.70
62809;DHT22;48848;39.002;-94.584;2023-08-08T12:17:31;22.30;56.80
62809;DHT22;48848;39.002;-94.584;2023-08-08T12:20:02;22.30;56.80
62809;DHT22;48848;39.002;-94.584;2023-08-08T12:22:29;22.30;56.70
62809;DHT22;48848;39.002;-94.584;2023-08-08T12:24:55;22.30;56.90
62809;DHT22;48848;39.002;-94.584;2023-08-08T12:27:20;22.30;57.10
62809;DHT22;48848;39.002;-94.584;2023-08-08T12:29:46;22.40;57.00
62809;DHT22;48848;39.002;-94.584;2023-08-08T12:32:12;22.40;57.00
62809;DHT22;48848;39.002;-94.584;2023-08-08T12:34:38;22.40;57.30
62809;DHT22;48848;39.002;-94.584;2023-08-08T12:37:04;22.40;57.20
62809;DHT22;48848;39.002;-94.584;2023-08-08T12:39:30;22.40;57.20
62809;DHT22;48848;39.002;-94.584;2023-08-08T12:41:56;22.40;57.20
62809;DHT22;48848;39.002;-94.584;2023-08-08T12:44:22;22.40;57.30
62809;DHT22;48848;39.002;-94.584;2023-08-08T12:46:48;22.40;57.40
62809;DHT22;48848;39.002;-94.584;2023-08-08T12:49:14;22.40;57.10
62809;DHT22;48848;39.002;-94.584;2023-08-08T12:51:40;22.30;54.80
62809;DHT22;48848;39.002;-94.584;2023-08-08T12:54:06;22.20;53.30
62809;DHT22;48848;39.002;-94.584;2023-08-08T12:56:32;22.10;52.60
62809;DHT22;48848;39.002;-94.584;2023-08-08T12:58:58;22.00;52.20
62809;DHT22;48848;39.002;-94.584;2023-08-08T13:01:23;21.90;51.80
62809;DHT22;48848;39.002;-94.584;2023-08-08T13:03:52;21.80;52.10
62809;DHT22;48848;39.002;-94.584;2023-08-08T13:06:18;21.80;54.10
62809;DHT22;48848;39.002;-94.584;2023-08-08T13:08:44;21.90;54.50
62809;DHT22;48848;39.002;-94.584;2023-08-08T13:11:10;21.90;55.00
62809;DHT22;48848;39.002;-94.584;2023-08-08T13:13:36;21.90;55.00
62809;DHT22;48848;39.002;-94.584;2023-08-08T13:16:02;22.00;55.50
62809;DHT22;48848;39.002;-94.584;2023-08-08T13:18:28;22.00;55.90
62809;DHT22;48848;39.002;-94.584;2023-08-08T13:20:54;22.00;56.40
62809;DHT22;48848;39.002;-94.584;2023-08-08T13:23:20;22.00;56.20
62809;DHT22;48848;39.002;-94.584;2023-08-08T13:25:46;22.00;56.00
62809;DHT22;48848;39.002;-94.584;2023-08-08T13:28:12;22.10;56.00
62809;DHT22;48848;39.002;-94.584;2023-08-08T13:30:40;22.10;56.00
62809;DHT22;48848;39.002;-94.584;2023-08-08T13:33:07;22.10;55.90
62809;DHT22;48848;39.002;-94.584;2023-08-08T13:35:33;22.10;55.90
62809;DHT22;48848;39.002;-94.584;2023-08-08T13:37:59;22.10;55.90
62809;DHT22;48848;39.002;-94.584;2023-08-08T13:40:25;22.10;55.90
62809;DHT22;48848;39.002;-94.584;2023-08-08T13:42:51;22.10;55.90
62809;DHT22;48848;39.002;-94.584;2023-08-08T13:45:20;22.20;55.90
62809;DHT22;48848;39.002;-94.584;2023-08-08T13:47:48;22.10;56.30
62809;DHT22;48848;39.002;-94.584;2023-08-08T13:50:14;22.20;56.60
62809;DHT22;48848;39.002;-94.584;2023-08-08T13:52:40;22.20;56.80
62809;DHT22;48848;39.002;-94.584;2023-08-08T13:55:07;22.20;56.60
62809;DHT22;48848;39.002;-94.584;2023-08-08T13:57:34;22.20;56.50
62809;DHT22;48848;39.002;-94.584;2023-08-08T14:00:00;22.30;56.50
62809;DHT22;48848;39.002;-94.584;2023-08-08T14:02:26;22.30;56.30
62809;DHT22;48848;39.002;-94.584;2023-08-08T14:04:52;22.20;56.30
62809;DHT22;48848;39.002;-94.584;2023-08-08T14:07:18;22.30;56.50
62809;DHT22;48848;39.002;-94.584;2023-08-08T14:09:44;22.30;56.50
62809;DHT22;48848;39.002;-94.584;2023-08-08T14:12:10;22.30;56.50
62809;DHT22;48848;39.002;-94.584;2023-08-08T14:14:35;22.30;56.80
62809;DHT22;48848;39.002;-94.584;2023-08-08T14:17:01;22.30;56.70
62809;DHT22;48848;39.002;-94.584;2023-08-08T14:19:27;22.30;56.60
62809;DHT22;48848;39.002;-94.584;2023-08-08T14:21:53;22.30;56.60
62809;DHT22;48848;39.002;-94.584;2023-08-08T14:24:19;22.30;56.40
62809;DHT22;48848;39.002;-94.584;2023-08-08T14:26:45;22.30;56.30
62809;DHT22;48848;39.002;-94.584;2023-08-08T14:29:11;22.40;56.40
62809;DHT22;48848;39.002;-94.584;2023-08-08T14:31:37;22.30;56.40
62809;DHT22;48848;39.002;-94.584;2023-08-08T14:34:03;22.40;56.50
62809;DHT22;48848;39.002;-94.584;2023-08-08T14:36:29;22.40;56.40
62809;DHT22;48848;39.002;-94.584;2023-08-08T14:38:54;22.40;56.30
62809;DHT22;48848;39.002;-94.584;2023-08-08T14:41:20;22.40;56.30
62809;DHT22;48848;39.002;-94.584;2023-08-08T14:43:46;22.40;56.40
62809;DHT22;48848;39.002;-94.584;2023-08-08T14:46:12;22.40;56.20
62809;DHT22;48848;39.002;-94.584;2023-08-08T14:48:38;22.40;56.20
62809;DHT22;48848;39.002;-94.584;2023-08-08T14:51:04;22.40;56.20
62809;DHT22;48848;39.002;-94.584;2023-08-08T14:53:30;22.40;56.20
62809;DHT22;48848;39.002;-94.584;2023-08-08T14:55:56;22.50;56.30
62809;DHT22;48848;39.002;-94.584;2023-08-08T14:58:21;22.40;56.20
62809;DHT22;48848;39.002;-94.584;2023-08-08T15:00:47;22.50;56.30
62809;DHT22;48848;39.002;-94.584;2023-08-08T15:03:13;22.50;56.30